Calypso — IYQT — position and weather

sailwx.info

Track history (hours):
 
Tides and Currents Weather Stations Pressure Air Temp Water Temp Dewpoint Dewpoint Depression Visibility Wind Speed Wind Dir Waves Ship Positions

Calypso

Last reported at 2017-Jan-16 14:33 UTC. Time now 2017-Jan-16 17:18 UTC.
Position N 38°38' E 015°05'.

Length 32 m; draft 4.2 m.

Type: High speed craft. MMSI: 247143200.

Date/timePositionNaut miles runAvg speedWind from/ knotsBaromVisibWave heightAir tempDewpointWater temp
2017-Jan-16 14:33N 38°38' E 015°05'1515.5
2017-Jan-16 13:33N 38°23' E 015°08'1110.9
2017-Jan-16 12:33N 38°13' E 015°15'2 2.5
2017-Jan-16 11:34N 38°15' E 015°17'21 5.0
2017-Jan-16 07:25N 38°30' E 014°59'1314.5
2017-Jan-16 06:33N 38°21' E 015°09'9 9.1
2017-Jan-16 05:33N 38°13' E 015°15'0 0.0
2017-Jan-15 17:33N 38°13' E 015°15'1815.6
2017-Jan-15 16:23N 38°26' E 014°59'1314.5
2017-Jan-15 15:28N 38°39' E 015°05'2210.1
2017-Jan-15 13:18N 38°18' E 015°15'5 6.5
2017-Jan-15 12:33N 38°13' E 015°15'7 7.3
2017-Jan-15 11:33N 38°20' E 015°12'14 3.4
2017-Jan-15 07:24N 38°30' E 014°59'1011.3
2017-Jan-15 06:33N 38°22' E 015°06'1211.7
2017-Jan-15 05:33N 38°13' E 015°15'0 0.0
2017-Jan-14 15:33N 38°13' E 015°15'0 0.0
2017-Jan-14 14:33N 38°13' E 015°15'0 0.0
2017-Jan-14 13:33N 38°13' E 015°15'0 0.0
2017-Jan-14 12:33N 38°13' E 015°15'0 0.0
2017-Jan-14 11:33N 38°13' E 015°15'0 0.0
2017-Jan-14 10:33N 38°13' E 015°15'0 0.0
2017-Jan-14 09:33N 38°13' E 015°15'0 0.0
2017-Jan-14 08:33N 38°13' E 015°15'0 0.0
2017-Jan-14 07:33N 38°13' E 015°15'0 0.0
2017-Jan-14 06:33N 38°13' E 015°15'0 0.0
2017-Jan-14 05:33N 38°13' E 015°15'0 0.0
2017-Jan-13 17:33N 38°13' E 015°14'1817.2
2017-Jan-13 16:31N 38°26' E 014°59'1615.2
2017-Jan-13 15:27N 38°40' E 015°08'2311.1
2017-Jan-13 13:20N 38°17' E 015°16'4 5.8
2017-Jan-13 12:34N 38°13' E 015°15'4 3.5
2017-Jan-13 11:33N 38°16' E 015°16'2018.7
2017-Jan-13 10:31N 38°30' E 014°59'1 0.4
2017-Jan-13 07:27N 38°32' E 014°58'1314.6
2017-Jan-13 06:33N 38°21' E 015°08'10 9.7
2017-Jan-13 05:33N 38°13' E 015°15'0 0.0
2017-Jan-12 17:34N 38°13' E 015°15'5 1.1
2017-Jan-12 13:19N 38°18' E 015°15'5 5.9
2017-Jan-12 12:34N 38°13' E 015°14'2 2.2
2017-Jan-12 11:34N 38°15' E 015°17'6 1.1
2017-Jan-12 06:34N 38°19' E 015°12'6 6.3
2017-Jan-12 05:33N 38°13' E 015°15'0 0.0
2017-Jan-11 17:33N 38°13' E 015°15'1815.2
2017-Jan-11 16:24N 38°25' E 014°58'1617.9
2017-Jan-11 15:31N 38°39' E 015°07'2 1.6
2017-Jan-11 14:32N 38°39' E 015°05'1515.8
2017-Jan-11 13:33N 38°23' E 015°08'11 5.7
2017-Jan-11 11:33N 38°14' E 015°16'2019.5
2017-Jan-11 10:33N 38°28' E 014°58'1 0.5
2017-Jan-11 07:32N 38°26' E 014°57'1313.0
2017-Jan-11 06:34N 38°20' E 015°11'7 7.1
2017-Jan-11 05:34N 38°13' E 015°14'0 0.0
2017-Jan-10 17:29N 38°13' E 015°15'1817.1
2017-Jan-10 16:25N 38°26' E 014°58'1820.3
2017-Jan-10 15:31N 38°43' E 015°09'6 5.8
2017-Jan-10 14:24N 38°37' E 015°04'1417.1
2017-Jan-10 13:33N 38°23' E 015°08'1111.2
2017-Jan-10 12:33N 38°13' E 015°14'1 1.1
2017-Jan-10 11:34N 38°13' E 015°16'2120.6
2017-Jan-10 10:33N 38°28' E 014°57'3 1.0
2017-Jan-10 07:26N 38°31' E 014°58'1516.7
2017-Jan-10 06:33N 38°20' E 015°10'8 7.8
2017-Jan-10 05:34N 38°13' E 015°15'0 0.0
2017-Jan-09 17:27N 38°13' E 015°15'1819.6
2017-Jan-09 16:33N 38°25' E 014°58'1716.6
2017-Jan-09 15:33N 38°40' E 015°07'3 2.4
2017-Jan-09 14:26N 38°38' E 015°05'1719.2
2017-Jan-09 13:34N 38°22' E 015°08'1010.1
2017-Jan-09 12:33N 38°13' E 015°14'3 3.1
2017-Jan-09 11:34N 38°16' E 015°15'1818.3
2017-Jan-09 10:33N 38°28' E 014°57'3 1.0
2017-Jan-09 07:26N 38°31' E 014°58'1517.1
2017-Jan-09 06:34N 38°20' E 015°10'7 7.5
2017-Jan-09 05:33N 38°13' E 015°15'0 0.0
2017-Jan-09 04:33N 38°13' E 015°15'0 0.0
2017-Jan-08 17:26N 38°13' E 015°15'1719.7
2017-Jan-08 16:33N 38°25' E 014°59'1716.4
2017-Jan-08 15:32N 38°40' E 015°07'1 1.1
2017-Jan-08 14:34N 38°40' E 015°06'1818.4
2017-Jan-08 13:33N 38°21' E 015°10'9 9.1
2017-Jan-08 12:33N 38°13' E 015°15'6 5.8
2017-Jan-08 11:33N 38°17' E 015°09'1413.8
2017-Jan-08 10:33N 38°28' E 014°58'3 0.8
2017-Jan-08 07:28N 38°27' E 014°55'1516.3
2017-Jan-08 06:33N 38°18' E 015°10'6 5.8
2017-Jan-08 05:33N 38°13' E 015°14'0 0.0
2017-Jan-07 15:28N 38°13' E 015°14'0 0.0
2017-Jan-07 14:33N 38°13' E 015°14'0 0.0
2017-Jan-07 13:33N 38°13' E 015°14'0 0.0
2017-Jan-07 12:33N 38°13' E 015°14'0 0.0
2017-Jan-07 11:33N 38°13' E 015°14'0 0.0
2017-Jan-07 10:33N 38°13' E 015°14'0 0.0
2017-Jan-07 09:33N 38°13' E 015°14'0 0.0
2017-Jan-07 08:33N 38°13' E 015°14'0 0.0
2017-Jan-07 07:33N 38°13' E 015°14'0 0.0
2017-Jan-07 06:33N 38°13' E 015°14'0 0.0
2017-Jan-07 05:33N 38°13' E 015°14'  
Track history (hours):
 
Tides and Currents Weather Stations Pressure Air Temp Water Temp Dewpoint Dewpoint Depression Visibility Wind Speed Wind Dir Waves Ship Positions

Calypso

Last reported at 2017-Jan-16 14:33 UTC. Time now 2017-Jan-16 17:18 UTC.
Position N 38°38' E 015°05'.

Length 32 m; draft 4.2 m.

Type: High speed craft. MMSI: 247143200.

Date/timePositionNaut miles runAvg speedWind from/ knotsBaromVisibWave heightAir tempDewpointWater temp
2017-Jan-16 14:33N 38°38' E 015°05'1515.5
2017-Jan-16 13:33N 38°23' E 015°08'1110.9
2017-Jan-16 12:33N 38°13' E 015°15'2 2.5
2017-Jan-16 11:34N 38°15' E 015°17'21 5.0
2017-Jan-16 07:25N 38°30' E 014°59'1314.5
2017-Jan-16 06:33N 38°21' E 015°09'9 9.1
2017-Jan-16 05:33N 38°13' E 015°15'0 0.0
2017-Jan-15 17:33N 38°13' E 015°15'1815.6
2017-Jan-15 16:23N 38°26' E 014°59'1314.5
2017-Jan-15 15:28N 38°39' E 015°05'2210.1
2017-Jan-15 13:18N 38°18' E 015°15'5 6.5
2017-Jan-15 12:33N 38°13' E 015°15'7 7.3
2017-Jan-15 11:33N 38°20' E 015°12'14 3.4
2017-Jan-15 07:24N 38°30' E 014°59'1011.3
2017-Jan-15 06:33N 38°22' E 015°06'1211.7
2017-Jan-15 05:33N 38°13' E 015°15'0 0.0
2017-Jan-14 15:33N 38°13' E 015°15'0 0.0
2017-Jan-14 14:33N 38°13' E 015°15'0 0.0
2017-Jan-14 13:33N 38°13' E 015°15'0 0.0
2017-Jan-14 12:33N 38°13' E 015°15'0 0.0
2017-Jan-14 11:33N 38°13' E 015°15'0 0.0
2017-Jan-14 10:33N 38°13' E 015°15'0 0.0
2017-Jan-14 09:33N 38°13' E 015°15'0 0.0
2017-Jan-14 08:33N 38°13' E 015°15'0 0.0
2017-Jan-14 07:33N 38°13' E 015°15'0 0.0
2017-Jan-14 06:33N 38°13' E 015°15'0 0.0
2017-Jan-14 05:33N 38°13' E 015°15'0 0.0
2017-Jan-13 17:33N 38°13' E 015°14'1817.2
2017-Jan-13 16:31N 38°26' E 014°59'1615.2
2017-Jan-13 15:27N 38°40' E 015°08'2311.1
2017-Jan-13 13:20N 38°17' E 015°16'4 5.8
2017-Jan-13 12:34N 38°13' E 015°15'4 3.5
2017-Jan-13 11:33N 38°16' E 015°16'2018.7
2017-Jan-13 10:31N 38°30' E 014°59'1 0.4
2017-Jan-13 07:27N 38°32' E 014°58'1314.6
2017-Jan-13 06:33N 38°21' E 015°08'10 9.7
2017-Jan-13 05:33N 38°13' E 015°15'0 0.0
2017-Jan-12 17:34N 38°13' E 015°15'5 1.1
2017-Jan-12 13:19N 38°18' E 015°15'5 5.9
2017-Jan-12 12:34N 38°13' E 015°14'2 2.2
2017-Jan-12 11:34N 38°15' E 015°17'6 1.1
2017-Jan-12 06:34N 38°19' E 015°12'6 6.3
2017-Jan-12 05:33N 38°13' E 015°15'0 0.0
2017-Jan-11 17:33N 38°13' E 015°15'1815.2
2017-Jan-11 16:24N 38°25' E 014°58'1617.9
2017-Jan-11 15:31N 38°39' E 015°07'2 1.6
2017-Jan-11 14:32N 38°39' E 015°05'1515.8
2017-Jan-11 13:33N 38°23' E 015°08'11 5.7
2017-Jan-11 11:33N 38°14' E 015°16'2019.5
2017-Jan-11 10:33N 38°28' E 014°58'1 0.5
2017-Jan-11 07:32N 38°26' E 014°57'1313.0
2017-Jan-11 06:34N 38°20' E 015°11'7 7.1
2017-Jan-11 05:34N 38°13' E 015°14'0 0.0
2017-Jan-10 17:29N 38°13' E 015°15'1817.1
2017-Jan-10 16:25N 38°26' E 014°58'1820.3
2017-Jan-10 15:31N 38°43' E 015°09'6 5.8
2017-Jan-10 14:24N 38°37' E 015°04'1417.1
2017-Jan-10 13:33N 38°23' E 015°08'1111.2
2017-Jan-10 12:33N 38°13' E 015°14'1 1.1
2017-Jan-10 11:34N 38°13' E 015°16'2120.6
2017-Jan-10 10:33N 38°28' E 014°57'3 1.0
2017-Jan-10 07:26N 38°31' E 014°58'1516.7
2017-Jan-10 06:33N 38°20' E 015°10'8 7.8
2017-Jan-10 05:34N 38°13' E 015°15'0 0.0
2017-Jan-09 17:27N 38°13' E 015°15'1819.6
2017-Jan-09 16:33N 38°25' E 014°58'1716.6
2017-Jan-09 15:33N 38°40' E 015°07'3 2.4
2017-Jan-09 14:26N 38°38' E 015°05'1719.2
2017-Jan-09 13:34N 38°22' E 015°08'1010.1
2017-Jan-09 12:33N 38°13' E 015°14'3 3.1
2017-Jan-09 11:34N 38°16' E 015°15'1818.3
2017-Jan-09 10:33N 38°28' E 014°57'3 1.0
2017-Jan-09 07:26N 38°31' E 014°58'1517.1
2017-Jan-09 06:34N 38°20' E 015°10'7 7.5
2017-Jan-09 05:33N 38°13' E 015°15'0 0.0
2017-Jan-09 04:33N 38°13' E 015°15'0 0.0
2017-Jan-08 17:26N 38°13' E 015°15'1719.7
2017-Jan-08 16:33N 38°25' E 014°59'1716.4
2017-Jan-08 15:32N 38°40' E 015°07'1 1.1
2017-Jan-08 14:34N 38°40' E 015°06'1818.4
2017-Jan-08 13:33N 38°21' E 015°10'9 9.1
2017-Jan-08 12:33N 38°13' E 015°15'6 5.8
2017-Jan-08 11:33N 38°17' E 015°09'1413.8
2017-Jan-08 10:33N 38°28' E 014°58'3 0.8
2017-Jan-08 07:28N 38°27' E 014°55'1516.3
2017-Jan-08 06:33N 38°18' E 015°10'6 5.8
2017-Jan-08 05:33N 38°13' E 015°14'0 0.0
2017-Jan-07 15:28N 38°13' E 015°14'0 0.0
2017-Jan-07 14:33N 38°13' E 015°14'0 0.0
2017-Jan-07 13:33N 38°13' E 015°14'0 0.0
2017-Jan-07 12:33N 38°13' E 015°14'0 0.0
2017-Jan-07 11:33N 38°13' E 015°14'0 0.0
2017-Jan-07 10:33N 38°13' E 015°14'0 0.0
2017-Jan-07 09:33N 38°13' E 015°14'0 0.0
2017-Jan-07 08:33N 38°13' E 015°14'0 0.0
2017-Jan-07 07:33N 38°13' E 015°14'0 0.0
2017-Jan-07 06:33N 38°13' E 015°14'0 0.0
2017-Jan-07 05:33N 38°13' E 015°14'  

Dump ship's entire track history